TimeHST,TemperatureF,Dew PointF,Humidity,Sea Level PressureIn,VisibilityMPH,Wind Direction,Wind SpeedMPH,Gust SpeedMPH,PrecipitationIn,Events,Conditions,WindDirDegrees,DateUTC
12:57 AM,73.4,68.0,83,30.01,10.0,ENE,6.9,-,N/A,,Partly Cloudy,70,2013-07-01 10:57:00
1:57 AM,73.4,68.0,83,30.00,10.0,ENE,8.1,-,N/A,,Mostly Cloudy,70,2013-07-01 11:57:00
2:08 AM,-9999,-9999,N/A,30.02,6.2,ENE,6.9,-,N/A,,Mostly Cloudy,70,2013-07-01 12:08:00
2:37 AM,-9999,-9999,N/A,30.01,6.2,ENE,6.9,-,N/A,,Scattered Clouds,60,2013-07-01 12:37:00
2:57 AM,-9999,-9999,N/A,30.00,10.0,ENE,4.6,-,N/A,,Clear,60,2013-07-01 12:57:00
3:15 AM,-9999,-9999,N/A,-9999,-9999.0,North,-9999.0,-,N/A,,Unknown,0,2013-07-01 13:15:00
3:57 AM,73.4,68.0,83,29.99,-9999.0,NE,8.1,-,N/A,,Mostly Cloudy,50,2013-07-01 13:57:00
4:57 AM,73.4,68.0,83,30.00,10.0,ENE,8.1,-,N/A,,Scattered Clouds,60,2013-07-01 14:57:00
5:57 AM,73.4,68.0,83,30.01,10.0,NE,5.8,-,N/A,,Partly Cloudy,50,2013-07-01 15:57:00
6:57 AM,73.4,69.1,86,30.03,10.0,NE,8.1,-,N/A,,Mostly Cloudy,50,2013-07-01 16:57:00
7:16 AM,73.4,69.8,88,30.05,6.2,NE,6.9,-,N/A,,Mostly Cloudy,50,2013-07-01 17:16:00
7:29 AM,73.4,69.8,88,30.05,6.2,ENE,6.9,-,N/A,,Mostly Cloudy,60,2013-07-01 17:29:00
7:57 AM,73.4,69.1,86,30.04,10.0,NE,6.9,-,N/A,,Scattered Clouds,50,2013-07-01 17:57:00
8:57 AM,77.0,68.0,74,30.04,10.0,NE,10.4,-,0.00,Rain,Light Rain,50,2013-07-01 18:57:00
9:57 AM,79.9,69.1,69,30.04,10.0,ENE,8.1,-,0.00,,Mostly Cloudy,60,2013-07-01 19:57:00
10:57 AM,81.1,68.0,64,30.04,10.0,NE,9.2,16.1,N/A,,Scattered Clouds,50,2013-07-01 20:57:00
11:57 AM,81.1,69.1,67,30.02,10.0,NE,10.4,-,0.00,,Mostly Cloudy,50,2013-07-01 21:57:00
12:57 PM,81.9,72.0,72,30.01,10.0,NNE,8.1,-,N/A,,Scattered Clouds,20,2013-07-01 22:57:00
1:57 PM,84.6,70.0,61,30.00,10.0,ENE,10.4,-,N/A,,Scattered Clouds,60,2013-07-01 23:57:00
2:57 PM,84.7,66.0,53,29.99,10.0,ENE,10.4,-,N/A,,Scattered Clouds,60,2013-07-02 00:57:00
3:57 PM,82.6,68.0,61,29.99,10.0,ENE,12.7,23.0,N/A,,Scattered Clouds,60,2013-07-02 01:57:00
4:57 PM,80.8,70.0,70,29.98,10.0,NE,9.2,-,N/A,,Mostly Cloudy,40,2013-07-02 02:57:00
5:57 PM,79.2,70.0,73,29.98,10.0,NE,5.8,-,N/A,,Overcast,50,2013-07-02 03:57:00
6:57 PM,79.2,79.0,99,29.99,10.0,NE,10.4,17.3,N/A,,Overcast,50,2013-07-02 04:57:00
7:57 PM,77.9,68.0,71,30.00,10.0,NE,8.1,-,N/A,,Mostly Cloudy,40,2013-07-02 05:57:00
8:57 PM,77.9,68.0,71,30.00,10.0,NE,11.5,-,N/A,,Mostly Cloudy,50,2013-07-02 06:57:00
9:40 PM,78.8,69.8,74,30.02,6.2,NE,10.4,18.4,0.00,Rain,Light Rain,50,2013-07-02 07:40:00
9:57 PM,77.5,70.0,77,30.01,10.0,ENE,8.1,18.4,0.00,,Overcast,70,2013-07-02 07:57:00
10:04 PM,77.0,66.2,69,30.02,6.2,ENE,6.9,-,N/A,,Overcast,60,2013-07-02 08:04:00
10:57 PM,77.5,66.9,70,30.01,10.0,NE,9.2,18.4,N/A,,Overcast,50,2013-07-02 08:57:00
11:57 PM,77.5,66.9,70,30.00,10.0,NE,11.5,17.3,N/A,,Mostly Cloudy,50,2013-07-02 09:57:00